createdAt,value
2018-03-26T00:01:49.568Z,5.20
2018-03-26T00:04:15.752Z,5.20
2018-03-26T00:06:43.098Z,5.20
2018-03-26T00:09:09.289Z,5.20
2018-03-26T00:11:35.507Z,5.20
2018-03-26T00:14:01.701Z,5.20
2018-03-26T00:16:28.656Z,5.20
2018-03-26T00:18:54.844Z,5.20
2018-03-26T00:21:21.069Z,5.20
2018-03-26T00:23:47.265Z,5.20
2018-03-26T00:26:13.508Z,5.20
2018-03-26T00:28:39.714Z,5.20
2018-03-26T00:31:05.942Z,5.20
2018-03-26T00:33:32.124Z,5.20
2018-03-26T00:35:58.360Z,5.20
2018-03-26T00:38:24.579Z,5.30
2018-03-26T00:40:50.797Z,5.20
2018-03-26T00:43:17.000Z,5.20
2018-03-26T00:45:43.217Z,5.20
2018-03-26T00:48:09.428Z,5.20
2018-03-26T00:50:35.660Z,5.10
2018-03-26T00:53:01.850Z,5.10
2018-03-26T00:55:28.065Z,5.20
2018-03-26T00:57:54.261Z,5.20
2018-03-26T01:00:20.484Z,5.20
2018-03-26T01:02:46.697Z,5.20
2018-03-26T01:05:13.912Z,5.20
2018-03-26T01:07:40.144Z,5.20
2018-03-26T01:10:06.349Z,5.20
2018-03-26T01:12:32.556Z,5.20
2018-03-26T01:14:59.330Z,5.20
2018-03-26T01:17:26.789Z,5.20
2018-03-26T01:19:53.426Z,5.20
2018-03-26T01:22:19.665Z,5.20
2018-03-26T01:24:45.852Z,5.20
2018-03-26T01:27:12.100Z,5.20
2018-03-26T01:29:38.292Z,5.10
2018-03-26T01:32:04.508Z,5.10
2018-03-26T01:34:31.439Z,5.10
2018-03-26T01:36:57.656Z,5.10
2018-03-26T01:39:23.845Z,5.10
2018-03-26T01:41:50.068Z,5.10
2018-03-26T01:44:16.327Z,5.10
2018-03-26T01:46:42.540Z,5.10
2018-03-26T01:49:08.744Z,5.10
2018-03-26T01:51:35.200Z,5.10
2018-03-26T01:54:01.396Z,5.10
2018-03-26T01:56:27.661Z,5.10
2018-03-26T01:58:53.852Z,5.10
2018-03-26T02:01:20.828Z,5.20
2018-03-26T02:03:47.046Z,5.20
2018-03-26T02:06:13.274Z,5.30
2018-03-26T02:08:39.501Z,5.30
2018-03-26T02:11:05.713Z,5.30
2018-03-26T02:13:32.664Z,5.40
2018-03-26T02:15:59.600Z,5.50
2018-03-26T02:18:26.557Z,5.50
2018-03-26T02:20:53.489Z,5.50
2018-03-26T02:23:20.451Z,5.40
2018-03-26T02:25:46.701Z,5.40
2018-03-26T02:28:12.984Z,5.40
2018-03-26T02:30:39.172Z,5.40
2018-03-26T02:33:05.388Z,5.30
2018-03-26T02:35:31.835Z,5.10
2018-03-26T02:37:58.057Z,5.00
2018-03-26T02:40:24.256Z,5.00
2018-03-26T02:42:51.192Z,4.90
2018-03-26T02:45:18.150Z,4.90
2018-03-26T02:47:44.363Z,4.90
2018-03-26T02:50:11.325Z,4.90
2018-03-26T02:52:37.589Z,4.80
2018-03-26T02:55:03.805Z,4.90
2018-03-26T02:57:30.017Z,4.90
2018-03-26T02:59:56.235Z,4.80
2018-03-26T03:02:23.172Z,4.80
2018-03-26T03:04:50.129Z,4.80
2018-03-26T03:07:16.332Z,4.70
2018-03-26T03:09:42.558Z,4.70
2018-03-26T03:12:08.752Z,4.80
2018-03-26T03:14:35.072Z,4.70
2018-03-26T03:17:01.264Z,4.70
2018-03-26T03:19:28.204Z,4.70
2018-03-26T03:21:54.487Z,4.60
2018-03-26T03:24:20.676Z,4.70
2018-03-26T03:26:47.660Z,4.60
2018-03-26T03:29:13.857Z,4.60
2018-03-26T03:31:40.826Z,4.60
2018-03-26T03:34:07.028Z,4.60
2018-03-26T03:36:33.996Z,4.60
2018-03-26T03:39:00.197Z,4.60
2018-03-26T03:41:27.160Z,4.60
2018-03-26T03:43:53.348Z,4.50
2018-03-26T03:46:19.561Z,4.50
2018-03-26T03:48:45.764Z,4.50
2018-03-26T03:51:11.988Z,4.50
2018-03-26T03:53:38.185Z,4.50
2018-03-26T03:56:05.204Z,4.60
2018-03-26T03:58:31.409Z,4.50
2018-03-26T04:00:57.620Z,4.60
2018-03-26T04:03:23.809Z,4.60
2018-03-26T04:05:50.784Z,4.60
2018-03-26T04:08:16.971Z,4.60
2018-03-26T04:10:43.184Z,4.60
2018-03-26T04:13:09.372Z,4.50
2018-03-26T04:15:35.596Z,4.50
2018-03-26T04:18:02.532Z,4.50
2018-03-26T04:20:29.557Z,4.50
2018-03-26T04:22:55.744Z,4.50
2018-03-26T04:25:21.957Z,4.50
2018-03-26T04:27:48.182Z,4.50
2018-03-26T04:30:14.401Z,4.50
2018-03-26T04:32:40.600Z,4.50
2018-03-26T04:35:06.820Z,4.50
2018-03-26T04:37:33.021Z,4.50
2018-03-26T04:39:59.232Z,4.50
2018-03-26T04:42:25.420Z,4.50
2018-03-26T04:44:51.642Z,4.50
2018-03-26T04:47:17.830Z,4.50
2018-03-26T04:49:44.053Z,4.50
2018-03-26T04:52:10.244Z,4.50
2018-03-26T04:54:37.212Z,4.40
2018-03-26T04:57:03.413Z,4.50
2018-03-26T04:59:30.368Z,4.40
2018-03-26T05:01:57.309Z,4.50
2018-03-26T05:04:24.261Z,4.40
2018-03-26T05:06:51.187Z,4.50
2018-03-26T05:09:17.400Z,4.40
2018-03-26T05:11:43.599Z,4.50
2018-03-26T05:14:09.817Z,4.50
2018-03-26T05:16:36.008Z,4.50
2018-03-26T05:19:02.232Z,4.50
2018-03-26T05:21:28.417Z,4.50
2018-03-26T05:23:54.638Z,4.50
2018-03-26T05:26:20.857Z,4.50
2018-03-26T05:28:47.067Z,4.50
2018-03-26T05:31:14.008Z,4.50
2018-03-26T05:33:40.966Z,4.50
2018-03-26T05:36:07.198Z,4.50
2018-03-26T05:38:34.140Z,4.50
2018-03-26T05:41:01.101Z,4.50
2018-03-26T05:43:27.300Z,4.50
2018-03-26T05:45:54.265Z,4.60
2018-03-26T05:48:20.525Z,4.60
2018-03-26T05:50:46.748Z,4.60
2018-03-26T05:53:12.940Z,4.60
2018-03-26T05:55:39.889Z,4.60
2018-03-26T05:58:06.824Z,4.60
2018-03-26T06:00:33.784Z,4.60
2018-03-26T06:03:00.744Z,4.60
2018-03-26T06:05:26.966Z,4.60
2018-03-26T06:07:53.168Z,4.60
2018-03-26T06:10:19.406Z,4.60
2018-03-26T06:12:46.335Z,4.70
2018-03-26T06:15:12.553Z,4.70
2018-03-26T06:17:38.765Z,4.80
2018-03-26T06:20:04.985Z,4.80
2018-03-26T06:22:31.192Z,4.80
2018-03-26T06:24:57.478Z,4.80
2018-03-26T06:27:23.732Z,4.80
2018-03-26T06:29:50.716Z,4.80
2018-03-26T06:32:16.904Z,4.80
2018-03-26T06:34:43.893Z,4.80
2018-03-26T06:37:16.275Z,4.80
2018-03-26T06:39:42.524Z,4.90
2018-03-26T06:42:08.720Z,4.90
2018-03-26T06:44:34.920Z,4.90
2018-03-26T06:47:01.911Z,5.00
2018-03-26T06:49:28.103Z,5.00
2018-03-26T06:51:54.321Z,5.00
2018-03-26T06:54:21.275Z,5.00
2018-03-26T06:56:48.286Z,5.00
2018-03-26T06:59:14.442Z,5.00
2018-03-26T07:01:41.412Z,5.00
2018-03-26T07:04:07.613Z,5.00
2018-03-26T07:06:34.578Z,5.10
2018-03-26T07:09:00.785Z,5.10
2018-03-26T07:11:27.769Z,5.20
2018-03-26T07:13:53.991Z,5.20
2018-03-26T07:16:20.217Z,5.20
2018-03-26T07:18:46.412Z,5.30
2018-03-26T07:21:12.639Z,5.30
2018-03-26T07:23:38.837Z,5.30
2018-03-26T07:26:05.080Z,5.40
2018-03-26T07:28:31.303Z,5.50
2018-03-26T07:30:57.536Z,5.60
2018-03-26T07:33:23.730Z,5.70
2018-03-26T07:35:50.154Z,5.70
2018-03-26T07:38:16.353Z,5.70
2018-03-26T07:40:43.317Z,5.80
2018-03-26T07:43:09.588Z,5.80
2018-03-26T07:45:35.825Z,5.80
2018-03-26T07:48:02.058Z,5.70
2018-03-26T07:50:28.257Z,5.70
2018-03-26T07:52:54.452Z,5.60
2018-03-26T07:55:21.412Z,5.50
2018-03-26T07:57:47.637Z,5.50
2018-03-26T08:00:14.616Z,5.40
2018-03-26T08:02:40.803Z,5.40
2018-03-26T08:05:07.772Z,5.40
2018-03-26T08:07:33.972Z,5.40
2018-03-26T08:10:00.928Z,5.40
2018-03-26T08:12:27.865Z,5.40
2018-03-26T08:14:54.112Z,5.30
2018-03-26T08:17:20.343Z,5.30
2018-03-26T08:19:46.581Z,5.30
2018-03-26T08:22:12.776Z,5.40
2018-03-26T08:24:39.764Z,5.40
2018-03-26T08:27:05.980Z,5.40
2018-03-26T08:29:32.187Z,5.50
2018-03-26T08:31:59.111Z,5.40
2018-03-26T08:34:26.059Z,5.40
2018-03-26T08:36:52.248Z,5.40
2018-03-26T08:39:18.468Z,5.40
2018-03-26T08:41:44.660Z,5.40
2018-03-26T08:44:11.641Z,5.40
2018-03-26T08:46:37.835Z,5.30
2018-03-26T08:49:04.061Z,5.40
2018-03-26T08:51:31.036Z,5.40
2018-03-26T08:53:57.232Z,5.30
2018-03-26T08:56:23.455Z,5.40
2018-03-26T08:58:49.669Z,5.40
2018-03-26T09:01:15.889Z,5.40
2018-03-26T09:03:42.089Z,5.40
2018-03-26T09:06:08.317Z,5.50
2018-03-26T09:08:34.521Z,5.60
2018-03-26T09:11:01.480Z,5.60
2018-03-26T09:13:27.676Z,5.60
2018-03-26T09:15:53.900Z,5.60
2018-03-26T09:18:20.101Z,5.60
2018-03-26T09:20:46.321Z,5.60
2018-03-26T09:23:12.515Z,5.60
2018-03-26T09:25:46.450Z,5.70
2018-03-26T09:28:12.699Z,5.70
2018-03-26T09:30:38.921Z,5.80
2018-03-26T09:33:05.109Z,6.00
2018-03-26T09:35:32.076Z,6.30
2018-03-26T09:38:05.350Z,6.30
2018-03-26T09:40:32.348Z,6.50
2018-03-26T09:42:59.530Z,6.70
2018-03-26T09:45:27.232Z,6.80
2018-03-26T09:47:53.488Z,6.80
2018-03-26T09:50:19.729Z,6.60
2018-03-26T09:52:45.924Z,6.70
2018-03-26T09:55:12.192Z,6.80
2018-03-26T09:57:38.386Z,6.80
2018-03-26T10:00:04.616Z,6.90
2018-03-26T10:02:30.831Z,6.90
2018-03-26T10:04:57.440Z,6.90
2018-03-26T10:07:24.396Z,7.00
2018-03-26T10:09:51.336Z,7.10
2018-03-26T10:12:18.292Z,7.30
2018-03-26T10:14:45.224Z,7.30
2018-03-26T10:17:12.188Z,7.30
2018-03-26T10:19:39.124Z,7.40
2018-03-26T10:22:06.080Z,7.50
2018-03-26T10:24:33.008Z,7.50
2018-03-26T10:27:00.161Z,7.50
2018-03-26T10:29:27.089Z,7.60
2018-03-26T10:31:53.408Z,7.60
2018-03-26T10:34:19.604Z,7.60
2018-03-26T10:36:45.797Z,7.70
2018-03-26T10:39:12.764Z,7.90
2018-03-26T10:41:38.988Z,7.90
2018-03-26T10:44:05.936Z,8.20
2018-03-26T10:46:32.863Z,8.40
2018-03-26T10:48:59.830Z,8.70
2018-03-26T10:51:26.026Z,8.60
2018-03-26T10:53:52.253Z,8.90
2018-03-26T10:56:18.456Z,9.00
2018-03-26T10:58:44.676Z,9.00
2018-03-26T11:01:10.892Z,9.00
2018-03-26T11:03:37.115Z,9.10
2018-03-26T11:06:03.296Z,9.10
2018-03-26T11:08:29.549Z,9.00
2018-03-26T11:10:56.485Z,9.00
2018-03-26T11:13:23.444Z,8.90
2018-03-26T11:15:49.644Z,8.90
2018-03-26T11:18:15.837Z,8.80
2018-03-26T11:20:42.057Z,8.60
2018-03-26T11:23:08.250Z,8.50
2018-03-26T11:25:35.212Z,8.50
2018-03-26T11:28:01.477Z,8.40
2018-03-26T11:30:27.676Z,8.50
2018-03-26T11:32:53.866Z,8.60
2018-03-26T11:35:20.851Z,8.60
2018-03-26T11:37:47.042Z,8.60
2018-03-26T11:40:13.256Z,8.70
2018-03-26T11:42:39.450Z,9.00
2018-03-26T11:45:05.659Z,9.30
2018-03-26T11:47:31.848Z,9.70
2018-03-26T11:49:58.032Z,9.90
2018-03-26T11:52:24.248Z,9.80
2018-03-26T11:54:50.443Z,9.60
2018-03-26T11:57:16.931Z,9.30
2018-03-26T11:59:43.133Z,9.20
2018-03-26T12:02:10.106Z,9.30
2018-03-26T12:04:36.312Z,9.30
2018-03-26T12:07:02.853Z,9.50
2018-03-26T12:09:29.057Z,10.00
2018-03-26T12:11:56.016Z,10.80
2018-03-26T12:14:22.969Z,11.00
2018-03-26T12:16:49.353Z,11.00
2018-03-26T12:19:15.548Z,11.10
2018-03-26T12:21:41.740Z,10.90
2018-03-26T12:24:21.249Z,11.10
2018-03-26T12:26:47.472Z,11.10
2018-03-26T12:29:26.112Z,11.40
2018-03-26T12:31:53.048Z,12.20
2018-03-26T12:34:31.568Z,12.20
2018-03-26T12:36:57.755Z,12.80
2018-03-26T12:39:23.968Z,13.60
2018-03-26T12:41:50.169Z,14.70
2018-03-26T12:44:28.807Z,16.40
2018-03-26T12:46:55.809Z,17.80
2018-03-26T12:49:22.012Z,17.80
2018-03-26T12:52:00.799Z,17.10
2018-03-26T12:54:27.728Z,15.10
2018-03-26T12:57:07.453Z,13.90
2018-03-26T12:59:33.689Z,13.90
2018-03-26T13:02:12.284Z,12.60
2018-03-26T13:04:38.471Z,11.70
2018-03-26T13:07:05.404Z,11.00
2018-03-26T13:09:31.685Z,10.90
2018-03-26T13:11:58.276Z,10.70
2018-03-26T13:14:24.484Z,10.40
2018-03-26T13:16:50.740Z,10.40
2018-03-26T13:19:17.705Z,10.40
2018-03-26T13:21:43.974Z,10.30
2018-03-26T13:24:10.210Z,10.20
2018-03-26T13:26:36.441Z,10.00
2018-03-26T13:29:02.673Z,10.10
2018-03-26T13:31:28.865Z,10.40
2018-03-26T13:33:55.081Z,11.30
2018-03-26T13:36:21.272Z,11.60
2018-03-26T13:38:47.494Z,11.80
2018-03-26T13:41:13.698Z,11.60
2018-03-26T13:43:39.911Z,11.20
2018-03-26T13:46:06.452Z,11.10
2018-03-26T13:48:32.676Z,10.90
2018-03-26T13:50:59.612Z,10.10
2018-03-26T13:53:25.853Z,10.00
2018-03-26T13:55:52.044Z,9.90
2018-03-26T13:58:19.069Z,9.60
2018-03-26T14:00:45.264Z,9.60
2018-03-26T14:03:11.480Z,9.40
2018-03-26T14:05:37.676Z,9.40
2018-03-26T14:08:04.678Z,9.30
2018-03-26T14:10:43.076Z,9.30
2018-03-26T14:16:25.657Z,8.80
2018-03-26T14:18:51.869Z,8.60
2018-03-26T14:21:18.064Z,8.50
2018-03-26T14:23:44.434Z,8.50
2018-03-26T14:26:10.645Z,8.40
2018-03-26T14:28:36.857Z,8.40
2018-03-26T14:31:03.104Z,8.30
2018-03-26T14:33:29.305Z,8.20
2018-03-26T14:35:55.644Z,8.20
2018-03-26T14:38:22.584Z,7.80
2018-03-26T14:40:48.810Z,7.80
2018-03-26T14:43:15.078Z,7.70
2018-03-26T14:45:41.297Z,7.50
2018-03-26T14:48:07.509Z,7.40
2018-03-26T14:50:33.788Z,7.40
2018-03-26T14:52:59.986Z,7.30
2018-03-26T14:55:26.226Z,7.30
2018-03-26T14:57:52.437Z,7.20
2018-03-26T15:00:18.629Z,7.10
2018-03-26T15:02:45.633Z,6.90
2018-03-26T15:05:12.609Z,6.80
2018-03-26T15:07:39.576Z,6.70
2018-03-26T15:10:05.773Z,6.70
2018-03-26T15:12:32.009Z,6.70
2018-03-26T15:14:58.205Z,6.60
2018-03-26T15:17:24.432Z,6.70
2018-03-26T15:19:50.633Z,6.80
2018-03-26T15:22:16.853Z,6.80
2018-03-26T15:24:43.564Z,6.80
2018-03-26T15:27:09.791Z,6.80
2018-03-26T15:29:36.007Z,6.80
2018-03-26T15:32:02.201Z,6.80
2018-03-26T15:34:28.429Z,6.80
2018-03-26T15:36:54.648Z,6.80
2018-03-26T15:39:20.860Z,6.90
2018-03-26T15:41:47.057Z,7.00
2018-03-26T15:44:14.040Z,7.30
2018-03-26T15:46:40.968Z,7.40
2018-03-26T15:49:07.369Z,7.40
2018-03-26T15:51:33.555Z,7.50
2018-03-26T15:53:59.740Z,7.60
2018-03-26T15:56:25.960Z,7.70
2018-03-26T15:58:52.148Z,7.60
2018-03-26T16:01:18.365Z,7.60
2018-03-26T16:03:44.560Z,7.50
2018-03-26T16:06:10.782Z,7.50
2018-03-26T16:08:36.984Z,7.40
2018-03-26T16:11:03.221Z,7.20
2018-03-26T16:13:29.417Z,7.10
2018-03-26T16:15:55.636Z,7.10
2018-03-26T16:18:21.884Z,7.10
2018-03-26T16:20:48.106Z,7.20
2018-03-26T16:23:14.297Z,7.20
2018-03-26T16:25:41.292Z,7.20
2018-03-26T16:28:07.504Z,7.20
2018-03-26T16:30:33.720Z,7.10
2018-03-26T16:33:00.657Z,7.00
2018-03-26T16:35:27.654Z,6.90
2018-03-26T16:37:53.846Z,6.80
2018-03-26T16:40:20.036Z,6.80
2018-03-26T16:42:46.312Z,6.70
2018-03-26T16:45:12.763Z,6.70
2018-03-26T16:47:38.985Z,6.80
2018-03-26T16:50:05.180Z,6.80
2018-03-26T16:52:32.142Z,6.70
2018-03-26T16:54:58.336Z,6.70
2018-03-26T16:57:24.688Z,6.60
2018-03-26T16:59:50.900Z,6.60
2018-03-26T17:02:17.362Z,6.50
2018-03-26T17:04:44.315Z,6.40
2018-03-26T17:07:10.512Z,6.40
2018-03-26T17:09:36.732Z,6.40
2018-03-26T17:12:02.929Z,6.40
2018-03-26T17:14:29.143Z,6.30
2018-03-26T17:16:55.338Z,6.30
2018-03-26T17:19:22.314Z,6.20
2018-03-26T17:21:48.761Z,6.10
2018-03-26T17:24:15.032Z,6.10
2018-03-26T17:26:41.229Z,6.10
2018-03-26T17:29:07.456Z,6.00
2018-03-26T17:31:33.652Z,6.00
2018-03-26T17:33:59.840Z,5.90
2018-03-26T17:36:27.536Z,5.90
2018-03-26T17:38:54.477Z,5.90
2018-03-26T17:41:21.668Z,5.90
2018-03-26T17:43:47.865Z,5.80
2018-03-26T17:46:14.847Z,5.80
2018-03-26T17:48:41.085Z,5.80
2018-03-26T17:51:07.273Z,5.80
2018-03-26T17:53:34.208Z,5.70
2018-03-26T17:56:01.164Z,5.70
2018-03-26T17:58:27.351Z,5.70
2018-03-26T18:00:54.317Z,5.70
2018-03-26T18:03:21.254Z,5.70
2018-03-26T18:05:54.545Z,5.60
2018-03-26T18:08:20.736Z,5.60
2018-03-26T18:10:46.972Z,5.60
2018-03-26T18:13:13.172Z,5.50
2018-03-26T18:15:39.369Z,5.50
2018-03-26T18:18:05.583Z,5.50
2018-03-26T18:20:31.778Z,5.50
2018-03-26T18:22:58.027Z,5.40
2018-03-26T18:25:24.220Z,5.40
2018-03-26T18:27:50.436Z,5.40
2018-03-26T18:30:16.644Z,5.30
2018-03-26T18:32:42.860Z,5.30
2018-03-26T18:35:09.051Z,5.30
2018-03-26T18:37:35.287Z,5.30
2018-03-26T18:40:01.482Z,5.30
2018-03-26T18:42:27.706Z,5.30
2018-03-26T18:44:54.648Z,5.20
2018-03-26T18:47:20.937Z,5.20
2018-03-26T18:49:47.153Z,5.10
2018-03-26T18:52:13.676Z,5.10
2018-03-26T18:54:39.872Z,5.00
2018-03-26T18:57:06.898Z,4.90
2018-03-26T18:59:33.049Z,4.90
2018-03-26T19:02:07.112Z,4.70
2018-03-26T19:04:33.319Z,4.70
2018-03-26T19:06:59.514Z,4.60
2018-03-26T19:09:26.469Z,4.40
2018-03-26T19:11:52.665Z,4.40
2018-03-26T19:14:18.940Z,4.40
2018-03-26T19:16:45.178Z,4.30
2018-03-26T19:19:11.364Z,4.30
2018-03-26T19:21:38.300Z,4.20
2018-03-26T19:24:04.560Z,4.20
2018-03-26T19:26:30.752Z,4.20
2018-03-26T19:28:56.965Z,4.10
2018-03-26T19:31:23.161Z,4.10
2018-03-26T19:33:49.423Z,4.00
2018-03-26T19:36:15.616Z,3.90
2018-03-26T19:38:41.873Z,3.90
2018-03-26T19:41:08.097Z,3.80
2018-03-26T19:43:34.293Z,3.70
2018-03-26T19:46:00.517Z,3.60
2018-03-26T19:48:27.454Z,3.50
2018-03-26T19:50:54.417Z,3.50
2018-03-26T19:53:20.613Z,3.40
2018-03-26T19:55:46.815Z,3.40
2018-03-26T19:58:12.983Z,3.40
2018-03-26T20:00:39.919Z,3.30
2018-03-26T20:03:06.104Z,3.20
2018-03-26T20:05:32.332Z,3.10
2018-03-26T20:07:58.533Z,3.00
2018-03-26T20:10:24.760Z,3.00
2018-03-26T20:12:51.044Z,2.90
2018-03-26T20:15:17.240Z,2.80
2018-03-26T20:17:43.464Z,2.80
2018-03-26T20:20:09.688Z,2.70
2018-03-26T20:22:35.904Z,2.60
2018-03-26T20:25:02.864Z,2.60
2018-03-26T20:27:29.100Z,2.60
2018-03-26T20:29:55.301Z,2.60
2018-03-26T20:32:22.242Z,2.50
2018-03-26T20:34:49.201Z,2.50
2018-03-26T20:37:15.428Z,2.40
2018-03-26T20:39:41.625Z,2.50
2018-03-26T20:42:07.856Z,2.40
2018-03-26T20:44:34.047Z,2.40
2018-03-26T20:47:00.232Z,2.40
2018-03-26T20:49:27.189Z,2.30
2018-03-26T20:51:53.384Z,2.30
2018-03-26T20:54:19.612Z,2.30
2018-03-26T20:56:45.817Z,2.20
2018-03-26T20:59:12.036Z,2.10
2018-03-26T21:01:38.228Z,2.20
2018-03-26T21:04:05.200Z,2.10
2018-03-26T21:06:31.401Z,2.10
2018-03-26T21:08:58.355Z,2.10
2018-03-26T21:11:24.568Z,2.00
2018-03-26T21:13:51.520Z,2.00
2018-03-26T21:16:18.710Z,2.00
2018-03-26T21:18:44.927Z,2.00
2018-03-26T21:21:11.176Z,1.90
2018-03-26T21:23:37.359Z,1.80
2018-03-26T21:26:04.344Z,1.70
2018-03-26T21:28:30.556Z,1.70
2018-03-26T21:30:56.749Z,1.60
2018-03-26T21:33:23.712Z,1.50
2018-03-26T21:35:50.657Z,1.40
2018-03-26T21:38:18.070Z,1.30
2018-03-26T21:40:44.265Z,1.30
2018-03-26T21:43:10.481Z,1.40
2018-03-26T21:45:36.825Z,1.40
2018-03-26T21:48:03.082Z,1.30
2018-03-26T21:50:29.288Z,1.30
2018-03-26T21:52:55.486Z,1.30
2018-03-26T21:55:22.455Z,1.30
2018-03-26T21:57:48.657Z,1.20
2018-03-26T22:00:16.524Z,1.20
2018-03-26T22:02:43.476Z,1.30
2018-03-26T22:05:10.562Z,1.20
2018-03-26T22:07:36.757Z,1.20
2018-03-26T22:10:03.700Z,1.20
2018-03-26T22:12:30.684Z,1.30
2018-03-26T22:14:56.900Z,1.20
2018-03-26T22:17:23.132Z,1.30
2018-03-26T22:19:49.325Z,1.30
2018-03-26T22:22:16.288Z,1.30
2018-03-26T22:24:42.481Z,1.30
2018-03-26T22:27:08.693Z,1.30
2018-03-26T22:29:34.892Z,1.20
2018-03-26T22:32:01.109Z,1.20
2018-03-26T22:34:27.304Z,1.10
2018-03-26T22:36:54.264Z,1.10
2018-03-26T22:39:21.205Z,1.00
2018-03-26T22:41:48.160Z,0.90
2018-03-26T22:44:15.097Z,0.90
2018-03-26T22:46:42.084Z,0.80
2018-03-26T22:49:08.287Z,0.80
2018-03-26T22:51:35.244Z,0.90
2018-03-26T22:54:01.432Z,0.90
2018-03-26T22:56:27.781Z,0.90
2018-03-26T22:58:54.712Z,0.80
2018-03-26T23:01:21.233Z,0.70
2018-03-26T23:03:47.431Z,0.70
2018-03-26T23:06:13.643Z,0.70
2018-03-26T23:08:39.879Z,0.70
2018-03-26T23:11:06.068Z,0.60
2018-03-26T23:13:32.285Z,0.50
2018-03-26T23:15:59.256Z,0.50
2018-03-26T23:18:26.221Z,0.50
2018-03-26T23:20:52.449Z,0.40
2018-03-26T23:23:18.660Z,0.50
2018-03-26T23:25:45.597Z,0.50
2018-03-26T23:28:19.741Z,0.40
2018-03-26T23:30:45.937Z,0.40
2018-03-26T23:33:12.124Z,0.40
2018-03-26T23:35:38.380Z,0.40
2018-03-26T23:38:04.636Z,0.40
2018-03-26T23:40:31.575Z,0.40
2018-03-26T23:42:58.509Z,0.40
2018-03-26T23:45:24.725Z,0.40
2018-03-26T23:47:50.952Z,0.40
2018-03-26T23:50:17.160Z,0.40
2018-03-26T23:52:43.344Z,0.30
2018-03-26T23:55:10.316Z,0.20
2018-03-26T23:57:36.504Z,0.20
